^^
Datos históricos de la estación: Murcia-Puente Tocinos
Diario Informe para Abril 13, 2019 Unidades:  Ingés    Métrico   Ambas
Diario Semanal Mensual Anual
  Máxima: Mínima: Promedio:
Temperatura: 75.9 °F 63.1 °F 68.4 °F
Punto de rocio: 70.5 °F 62.2 °F 64.9 °F
Humedad: 97% 76% 89%
Velocidad viento: 16.8mph 1.4mph 7.1mph
Racha viento: 32.2mph - -
Viento- - Sur
Presión: 30.2 in 30.1 in -
Precipitación: 5.5 in    
 
 
Tabla de datos para Abril 13, 2019
Hora Temperatura Punto de rocio Presión Viento Velocidad viento Racha viento Humedad Intensidad lluvia(por hora) Nubes
00:04 65.8 °F 63.9 °F 30.2 in SO 4.3 mph 6 mph 93% 0.08 in
00:09 65.7 °F 63.7 °F 30.2 in SO 3.8 mph 4.3 mph 93% 0.09 in
00:14 65.7 °F 63.9 °F 30.2 in SSO 1.4 mph 5 mph 93.8% 0.12 in
00:19 65.7 °F 64 °F 30.2 in SO 1.5 mph 4.6 mph 94% 0.15 in
00:24 65.8 °F 64 °F 30.2 in OSO 1.8 mph 5 mph 94% 0.21 in
00:29 65.8 °F 64 °F 30.2 in NNO 1.9 mph 6.9 mph 94% 0.28 in
00:34 65.8 °F 64 °F 30.2 in North 2 mph 8.1 mph 94% 0.38 in
00:39 65.7 °F 64 °F 30.2 in ONO 2.7 mph 10.7 mph 94.3% 0.46 in
00:44 65.5 °F 64 °F 30.2 in NO 5.9 mph 12.7 mph 95% 0.54 in
00:49 65.3 °F 63.9 °F 30.2 in NNO 5.8 mph 13 mph 95% 0.56 in
00:54 65.1 °F 63.7 °F 30.2 in NO 5.4 mph 11.2 mph 95% 0.62 in
00:59 65.1 °F 63.7 °F 30.2 in NO 5.8 mph 15 mph 95% 0.74 in
01:04 64.9 °F 63.5 °F 30.2 in ONO 7.4 mph 15 mph 95% 0.78 in
01:09 64.9 °F 63.5 °F 30.2 in ONO 7.6 mph 14 mph 95% 0.83 in
01:14 64.9 °F 63.5 °F 30.2 in Oeste 8.5 mph 14 mph 95% 0.87 in
01:19 64.9 °F 63.5 °F 30.2 in Oeste 8.4 mph 15 mph 95% 0.93 in
01:24 64.9 °F 63.7 °F 30.2 in OSO 8.1 mph 15 mph 95% 0.95 in
01:29 64.9 °F 63.7 °F 30.2 in SSO 8.2 mph 15 mph 95% 0.91 in
01:34 65.1 °F 64 °F 30.2 in Sur 8.7 mph 19 mph 95.9% 0.86 in
01:39 65.3 °F 64 °F 30.2 in SSO 8.9 mph 19.6 mph 95.8% 0.75 in
01:44 65.5 °F 64 °F 30.2 in SO 10.2 mph 20 mph 95% 0.77 in
01:49 65.3 °F 63.9 °F 30.2 in OSO 10 mph 17 mph 95% 0.78 in
01:54 65.1 °F 63.7 °F 30.2 in Oeste 9.2 mph 17.3 mph 95% 0.78 in
01:59 65.1 °F 63.7 °F 30.2 in SO 8.8 mph 17 mph 95.2% 0.74 in
02:04 64.9 °F 63.9 °F 30.2 in SO 7.6 mph 13 mph 96% 0.73 in
02:09 64.9 °F 63.9 °F 30.2 in SO 7.5 mph 13.8 mph 96% 0.74 in
02:14 64.9 °F 63.9 °F 30.2 in OSO 6.9 mph 17.3 mph 96% 0.71 in
02:19 64.9 °F 63.9 °F 30.2 in SSO 7.1 mph 17 mph 96% 0.65 in
02:24 64.9 °F 63.9 °F 30.2 in SSO 8.1 mph 16.1 mph 96% 0.58 in
02:29 64.9 °F 63.9 °F 30.2 in Sur 8.1 mph 16 mph 96% 0.6 in
02:34 64.9 °F 63.9 °F 30.2 in OSO 8.5 mph 21.9 mph 96% 0.66 in
02:39 65.1 °F 63.9 °F 30.2 in OSO 9.1 mph 22.3 mph 95.7% 0.66 in
02:44 65.1 °F 63.7 °F 30.2 in OSO 11.8 mph 22 mph 95% 0.62 in
02:49 65.1 °F 63.7 °F 30.2 in OSO 11.7 mph 21 mph 95% 0.55 in
02:54 65.1 °F 63.7 °F 30.2 in SSO 11.2 mph 16 mph 95% 0.52 in
02:59 65.1 °F 63.7 °F 30.2 in ESE 9.7 mph 11 mph 95.2% 0.46 in
03:04 65.1 °F 63.7 °F 30.2 in Sur 4.7 mph 13 mph 95% 0.5 in
03:09 65.1 °F 63.9 °F 30.2 in SO 5 mph 13 mph 95.7% 0.68 in
03:14 64.9 °F 63.9 °F 30.2 in OSO 5.9 mph 13.8 mph 96% 0.82 in
03:19 64.9 °F 63.9 °F 30.2 in Oeste 6 mph 14 mph 96% 0.84 in
03:24 64.9 °F 63.9 °F 30.2 in OSO 6.2 mph 10.4 mph 96% 0.84 in
03:29 64.9 °F 63.9 °F 30.2 in SO 6.3 mph 11.5 mph 96% 0.8 in
03:34 64.9 °F 63.9 °F 30.2 in SSO 6.9 mph 13 mph 96% 0.77 in
03:39 64.9 °F 63.9 °F 30.2 in Sur 6.8 mph 13 mph 96% 0.72 in
03:44 64.9 °F 63.9 °F 30.2 in SSO 6.4 mph 13.8 mph 96% 0.67 in
03:49 64.8 °F 63.7 °F 30.2 in SSO 6.6 mph 14 mph 96% 0.65 in
03:54 64.8 °F 63.7 °F 30.2 in SSO 7.6 mph 15.9 mph 96% 0.65 in
03:59 64.8 °F 63.7 °F 30.2 in SO 8.2 mph 17.5 mph 96% 0.64 in
04:04 64.9 °F 63.9 °F 30.2 in SO 10.2 mph 23 mph 96% 0.61 in
04:09 65.1 °F 63.7 °F 30.1 in OSO 10.2 mph 23 mph 95.2% 0.41 in
04:14 65.3 °F 63.7 °F 30.1 in OSO 10.2 mph 23 mph 94.8% 0.18 in
04:19 65.5 °F 63.7 °F 30.1 in OSO 9.9 mph 14 mph 94% 0.08 in
04:24 65.5 °F 63.7 °F 30.1 in SO 8.5 mph 17 mph 94% 0.04 in
04:29 65.5 °F 63.7 °F 30.1 in SSO 8.3 mph 17 mph 94% 0.03 in
04:34 65.5 °F 63.7 °F 30.1 in SO 7.6 mph 14 mph 94% 0.02 in
04:39 65.5 °F 63.7 °F 30.1 in SO 7.5 mph 12 mph 94% 0.02 in
04:44 65.5 °F 63.7 °F 30.1 in SO 6.9 mph 12.7 mph 94% 0.02 in
04:49 65.3 °F 63.5 °F 30.1 in SO 6.7 mph 13 mph 94% 0.02 in
04:54 65.3 °F 63.5 °F 30.1 in SO 5.9 mph 11.2 mph 94% 0.02 in
04:59 65.3 °F 63.5 °F 30.1 in OSO 6 mph 13 mph 93.7% 0.01 in
05:04 65.3 °F 63.3 °F 30.1 in OSO 6.4 mph 13 mph 93% 0 in
05:09 65.5 °F 63.3 °F 30.1 in SO 6.4 mph 13 mph 92.6% 0 in
05:14 65.7 °F 63.1 °F 30.1 in SO 6.2 mph 10.4 mph 92% 0 in
05:19 65.7 °F 63.3 °F 30.1 in SO 6 mph 10 mph 92% 0.02 in
05:24 65.7 °F 63 °F 30.1 in SO 4.7 mph 9.2 mph 91% 0.02 in
05:29 65.7 °F 63 °F 30.1 in SO 4.9 mph 13 mph 91% 0.03 in
05:34 65.7 °F 63 °F 30.1 in SO 5.9 mph 13 mph 91% 0.03 in
05:39 65.7 °F 63 °F 30.1 in SSO 6 mph 12 mph 91.1% 0.03 in
05:44 65.5 °F 63.1 °F 30.1 in Sur 6.4 mph 13.8 mph 92% 0.04 in
05:49 65.5 °F 63 °F 30.1 in Sur 6.8 mph 15 mph 92.1% 0.06 in
05:54 65.1 °F 63 °F 30.1 in Sur 8.7 mph 15.2 mph 93% 0.08 in
05:59 64.9 °F 63 °F 30.1 in Sur 9 mph 16.1 mph 93% 0.11 in
06:04 64.8 °F 63 °F 30.1 in SSO 10 mph 19.7 mph 93.6% 0.12 in
06:09 64.6 °F 62.8 °F 30.1 in SO 10.4 mph 20 mph 94% 0.14 in
06:14 64.4 °F 62.6 °F 30.1 in SSO 12.3 mph 23.5 mph 94% 0.17 in
06:19 64.2 °F 62.4 °F 30.1 in SO 12.7 mph 26.5 mph 94% 0.18 in
06:24 64.2 °F 62.6 °F 30.1 in SO 14.7 mph 26 mph 94.3% 0.19 in
06:29 64.2 °F 62.8 °F 30.1 in SO 14.1 mph 22.3 mph 94.9% 0.28 in
06:34 64 °F 62.6 °F 30.1 in SO 11.4 mph 22 mph 95% 0.43 in
06:39 63.9 °F 62.4 °F 30.1 in SO 11.5 mph 25.6 mph 95% 0.48 in
06:44 63.7 °F 62.4 °F 30.1 in SO 11.8 mph 26 mph 95.6% 0.49 in
06:49 63.7 °F 62.4 °F 30.1 in SO 11.6 mph 21 mph 96% 0.51 in
06:54 63.5 °F 62.4 °F 30.1 in SSO 10.7 mph 19 mph 96% 0.6 in
06:59 63.5 °F 62.2 °F 30.1 in Sur 11.4 mph 25.6 mph 96% 0.71 in
07:04 63.3 °F 62.2 °F 30.1 in SSO 13.7 mph 32.2 mph 96% 0.95 in
07:09 63.3 °F 62.4 °F 30.1 in SO 14.2 mph 32 mph 96.6% 1.2 in
07:14 63.3 °F 62.4 °F 30.1 in OSO 16.8 mph 24.2 mph 97% 1.37 in
07:19 63.3 °F 62.4 °F 30.1 in SO 16 mph 24 mph 97% 1.45 in
07:24 63.3 °F 62.4 °F 30.1 in SSO 12.3 mph 16.1 mph 97% 1.47 in
07:29 63.1 °F 62.4 °F 30.1 in SO 11.9 mph 18.5 mph 97% 1.45 in
07:34 63.1 °F 62.2 °F 30.1 in SO 10 mph 19 mph 97% 1.38 in
07:39 63.1 °F 62.2 °F 30.1 in Sur 10.2 mph 18.4 mph 97% 1.25 in
07:44 63.1 °F 62.2 °F 30.1 in SSO 11.2 mph 18 mph 97% 1.21 in
07:49 63.3 °F 62.4 °F 30.1 in Sur 10.9 mph 15 mph 97% 1.19 in
07:54 63.3 °F 62.4 °F 30.1 in Sur 9.2 mph 14 mph 97% 2.1 in
07:59 63.3 °F 62.4 °F 30.1 in Sur 8.8 mph 12 mph 97% 2.03 in
08:04 63.3 °F 62.4 °F 30.1 in Sur 7.4 mph 12 mph 97% 1.87 in
08:09 63.3 °F 62.4 °F 30.1 in OSO 7.1 mph 12 mph 97% 1.65 in
08:14 63.3 °F 62.4 °F 30.1 in SO 5.9 mph 10 mph 97% 1.41 in
08:19 63.3 °F 62.4 °F 30.1 in Sur 5.8 mph 9.2 mph 97% 1.22 in
08:24 63.5 °F 62.6 °F 30.1 in SO 5.2 mph 9.2 mph 97% 1.15 in
08:29 63.5 °F 62.6 °F 30.1 in SO 5.2 mph 10.7 mph 97% 1.11 in
08:34 63.7 °F 62.8 °F 30.1 in SO 5.4 mph 11 mph 97% 1.09 in
08:39 63.7 °F 62.8 °F 30.1 in SSO 5.5 mph 10 mph 97% 1.07 in
08:44 63.7 °F 62.8 °F 30.1 in SO 6.2 mph 10.7 mph 97% 1.06 in
08:49 63.7 °F 62.8 °F 30.1 in SO 6.2 mph 11.5 mph 97% 1.06 in
08:54 63.9 °F 63 °F 30.1 in SO 6.2 mph 12 mph 97% 1.06 in
08:59 63.9 °F 63 °F 30.1 in SO 6 mph 10.4 mph 97% 0.04 in
09:04 63.9 °F 62.8 °F 30.1 in Sur 5.4 mph 9 mph 96.1% 0.04 in
09:09 63.9 °F 62.8 °F 30.1 in SSE 5 mph 9 mph 96% 0.01 in
09:14 64 °F 62.8 °F 30.1 in Sur 3.1 mph 5.8 mph 96% 0 in
09:19 64 °F 63 °F 30.1 in SE 3.2 mph 6 mph 96% 0 in
09:24 64.2 °F 63.1 °F 30.1 in SE 3.6 mph 6.2 mph 96% 0.02 in
09:29 64.2 °F 63.1 °F 30.1 in SO 3.7 mph 9.2 mph 96% 0.1 in
09:34 64.2 °F 63.1 °F 30.1 in SO 4.3 mph 11.5 mph 96% 0.14 in
09:39 64.2 °F 63.1 °F 30.1 in SSO 4.6 mph 12 mph 96% 0.14 in
09:44 64.4 °F 63.3 °F 30.1 in SSO 5.9 mph 9.2 mph 96% 0.14 in
09:49 64.6 °F 63.3 °F 30.1 in SSO 5.7 mph 9 mph 96% 0.14 in
09:54 64.6 °F 63.3 °F 30.1 in SSE 4.7 mph 7 mph 96% 0.14 in
09:59 64.8 °F 63.5 °F 30.1 in SSO 4.6 mph 9.2 mph 96% 0.14 in
10:04 64.8 °F 63.7 °F 30.1 in SSO 4.3 mph 10.4 mph 96% 0.14 in
10:09 64.9 °F 63.7 °F 30.1 in SO 4.8 mph 10 mph 96% 0.14 in
10:14 64.9 °F 63.9 °F 30.1 in SO 6.9 mph 11.8 mph 96% 0.14 in
10:19 65.1 °F 63.9 °F 30.1 in OSO 6.8 mph 12 mph 95.8% 0.14 in
10:24 65.1 °F 63.7 °F 30.1 in OSO 6.2 mph 10 mph 95% 0.14 in
10:29 65.1 °F 63.7 °F 30.1 in SO 5.9 mph 10 mph 95% 0.1 in
10:34 65.1 °F 63.7 °F 30.1 in SO 4.7 mph 9 mph 95% 0.06 in
10:39 65.1 °F 63.7 °F 30.1 in SO 4.7 mph 9 mph 95% 0.06 in
10:44 65.1 °F 63.7 °F 30.1 in Oeste 4.3 mph 8.5 mph 95% 0.06 in
10:49 65.3 °F 63.9 °F 30.1 in Oeste 4.5 mph 9 mph 95% 0.06 in
10:54 65.5 °F 64 °F 30.1 in ONO 5.2 mph 8 mph 95.4% 0.06 in
10:59 65.5 °F 64.2 °F 30.1 in Oeste 4.8 mph 6.2 mph 96% 0.06 in
11:04 65.5 °F 64.4 °F 30.1 in OSO 3.1 mph 6 mph 96% 0.06 in
11:09 65.7 °F 64.6 °F 30.1 in SO 3 mph 6.4 mph 96% 0.06 in
11:14 65.7 °F 64.6 °F 30.1 in OSO 2.9 mph 7 mph 96% 0.06 in
11:19 65.5 °F 64.4 °F 30.2 in OSO 3 mph 7 mph 96% 0.06 in
11:24 65.5 °F 64.2 °F 30.2 in Oeste 3.6 mph 7 mph 96% 0.06 in
11:29 65.5 °F 64.4 °F 30.2 in Oeste 3.3 mph 5 mph 96% 0.06 in
11:34 65.7 °F 64.6 °F 30.2 in ONO 2 mph 5 mph 96% 0.05 in
11:39 65.8 °F 64.6 °F 30.2 in ONO 1.9 mph 4.6 mph 95.6% 0.01 in
11:44 65.8 °F 64.8 °F 30.2 in ONO 1.4 mph 5 mph 96% 0 in
11:49 66.2 °F 64.8 °F 30.2 in Oeste 1.5 mph 5 mph 95.1% 0 in
11:54 66.6 °F 64.9 °F 30.2 in Oeste 2 mph 6.9 mph 95% 0 in
11:59 66.6 °F 64.8 °F 30.2 in SO 2.2 mph 7 mph 94% 0 in
12:04 66.6 °F 64.6 °F 30.2 in Oeste 3.1 mph 6.2 mph 93.1% 0 in
12:09 66.9 °F 64.8 °F 30.2 in OSO 3.1 mph 6.9 mph 93% 0 in
12:14 67.3 °F 64.9 °F 30.2 in OSO 3.1 mph 8.1 mph 92.1% 0 in
12:19 67.5 °F 64.9 °F 30.2 in ONO 3 mph 8 mph 91.5% 0 in
12:24 67.6 °F 64.9 °F 30.2 in ONO 2.9 mph 5.2 mph 91.1% 0 in
12:29 67.6 °F 64.6 °F 30.2 in Oeste 2.7 mph 5 mph 90% 0 in
12:34 67.8 °F 64.9 °F 30.2 in Oeste 2 mph 4 mph 90.5% 0 in
12:39 68.4 °F 65.1 °F 30.2 in ONO 1.9 mph 4.6 mph 89.6% 0 in
12:44 68.7 °F 65.5 °F 30.2 in OSO 1.4 mph 5 mph 89.5% 0 in
12:49 69.1 °F 65.3 °F 30.2 in OSO 1.6 mph 5.8 mph 87.8% 0 in
12:54 69.3 °F 65.3 °F 30.2 in OSO 2.4 mph 6 mph 87% 0 in
12:59 69.8 °F 65.7 °F 30.2 in SSO 2.4 mph 6.2 mph 86.7% 0 in
13:04 70.2 °F 65.7 °F 30.2 in Oeste 2.4 mph 6 mph 85.6% 0 in
13:09 70.2 °F 65.3 °F 30.2 in OSO 2.5 mph 6.9 mph 84.7% 0 in
13:14 70.3 °F 65.3 °F 30.2 in SSO 3.1 mph 7 mph 84% 0 in
13:19 70.5 °F 65.7 °F 30.2 in SE 3 mph 6 mph 84.5% 0 in
13:24 71.1 °F 66 °F 30.1 in SSO 2.9 mph 6.2 mph 83.9% 0 in
13:29 71.2 °F 65.8 °F 30.1 in ONO 3.1 mph 6.9 mph 82.9% 0 in
13:34 71.2 °F 65.8 °F 30.1 in ONO 4 mph 7 mph 83.3% 0 in
13:39 71.4 °F 66 °F 30.1 in ONO 3.5 mph 4.6 mph 82.9% 0 in
13:44 71.8 °F 66.4 °F 30.1 in SO 1.4 mph 5.8 mph 82.8% 0 in
13:49 72.1 °F 66.6 °F 30.1 in OSO 1.7 mph 6 mph 82.6% 0 in
13:54 72.3 °F 66.4 °F 30.1 in Oeste 2.9 mph 6 mph 81.6% 0 in
13:59 72.9 °F 66.9 °F 30.1 in ONO 2.7 mph 5.8 mph 81.9% 0 in
14:04 73 °F 66.9 °F 30.1 in ONO 2 mph 6 mph 81% 0 in
14:09 73.2 °F 66.7 °F 30.1 in Oeste 2.2 mph 6 mph 80% 0 in
14:14 73.6 °F 67.1 °F 30.1 in Oeste 2.9 mph 5.2 mph 80.2% 0 in
14:19 73.8 °F 67.1 °F 30.1 in NNO 2.8 mph 6.9 mph 79.6% 0 in
14:24 73.9 °F 67.3 °F 30.1 in NO 2.4 mph 7 mph 79.8% 0 in
14:29 74.1 °F 67.6 °F 30.1 in NNE 2.7 mph 7 mph 80.2% 0 in
14:34 74.3 °F 67.5 °F 30.1 in NE 4 mph 7 mph 79.4% 0 in
14:39 74.5 °F 67.8 °F 30.1 in NE 3.8 mph 5.8 mph 79.7% 0 in
14:44 74.8 °F 68.2 °F 30.1 in NE 2.9 mph 6 mph 80% 0 in
14:49 75 °F 68 °F 30.1 in NE 2.8 mph 6 mph 79.2% 0 in
14:54 75.2 °F 68.2 °F 30.1 in NNE 2.4 mph 5 mph 79% 0 in
14:59 75.4 °F 68.4 °F 30.1 in North 2.5 mph 5.4 mph 79% 0 in
15:04 75.4 °F 68.4 °F 30.1 in NNE 2.9 mph 7.4 mph 79% 0 in
15:09 75.2 °F 68.4 °F 30.1 in NE 3.2 mph 9.7 mph 79.5% 0 in
15:14 75 °F 68.5 °F 30.1 in NE 4.7 mph 11.5 mph 80.2% 0 in
15:19 75 °F 68.7 °F 30.1 in NE 4.9 mph 12 mph 80.8% 0 in
15:24 75 °F 68.7 °F 30.1 in NE 5.9 mph 10 mph 80.7% 0 in
15:29 75.4 °F 69.1 °F 30.1 in NE 6 mph 10.4 mph 81% 0 in
15:34 75.6 °F 69.3 °F 30.1 in NE 6.2 mph 10.4 mph 80.6% 0 in
15:39 75.9 °F 69.8 °F 30.1 in NE 6.6 mph 24.2 mph 81.3% 0 in
15:44 75.7 °F 70 °F 30.1 in NE 8.5 mph 24 mph 82.4% 0 in
15:49 75 °F 70 °F 30.1 in NE 9.5 mph 23 mph 84.6% 0 in
15:54 74.8 °F 70.3 °F 30.1 in NE 14 mph 21.9 mph 85.9% 0 in
15:59 75 °F 70.5 °F 30.1 in NE 13.8 mph 22 mph 85.7% 0 in
16:04 75.6 °F 70.5 °F 30.1 in NE 13 mph 22 mph 84.9% 0 in
16:09 75.7 °F 70.3 °F 30.1 in NE 12.7 mph 18.4 mph 83.3% 0 in
16:14 75.6 °F 70.2 °F 30.1 in NE 11.2 mph 18.4 mph 83.3% 0 in
16:19 75.6 °F 70.2 °F 30.1 in NE 11.3 mph 19.6 mph 83.4% 0 in
16:24 75.6 °F 70 °F 30.1 in NE 11.8 mph 20 mph 83.3% 0 in
16:29 75.4 °F 70.2 °F 30.1 in NNE 11.6 mph 19 mph 83.6% 0 in
16:34 75.4 °F 70.2 °F 30.1 in NE 10.7 mph 19 mph 84% 0 in
16:39 75.2 °F 69.8 °F 30.1 in NE 10.6 mph 17.5 mph 83.3% 0 in
16:44 75 °F 69.6 °F 30.1 in NE 10 mph 20.7 mph 83.3% 0 in
16:49 75 °F 69.8 °F 30.1 in NE 9.9 mph 21 mph 83.6% 0 in
16:54 75 °F 69.6 °F 30.1 in NE 9.2 mph 20 mph 83.3% 0 in
16:59 74.8 °F 69.4 °F 30.1 in NE 9.2 mph 17.3 mph 83.1% 0 in
17:04 74.7 °F 69.1 °F 30.1 in NE 9.2 mph 17.3 mph 82.9% 0 in
17:09 74.5 °F 68.7 °F 30.1 in NNE 9.5 mph 20.8 mph 82.2% 0 in
17:14 74.1 °F 68.4 °F 30.1 in NE 11.2 mph 21 mph 82% 0 in
17:19 74.1 °F 68.4 °F 30.1 in NE 10.8 mph 18 mph 82.1% 0 in
17:24 74.1 °F 68.5 °F 30.1 in NE 8.7 mph 13.8 mph 83% 0 in
17:29 74.1 °F 69.1 °F 30.1 in NE 8.6 mph 16.1 mph 84.4% 0 in
17:34 74.1 °F 69.6 °F 30.1 in NE 8.1 mph 19.7 mph 85.9% 0 in
17:39 73.9 °F 69.8 °F 30.1 in NE 8.6 mph 20.7 mph 86.6% 0 in
17:44 73.9 °F 69.8 °F 30.1 in NE 11.2 mph 21 mph 87.1% 0 in
17:49 73.9 °F 70.2 °F 30.1 in NE 11.2 mph 21.9 mph 88% 0 in
17:54 73.9 °F 70.2 °F 30.1 in NE 11.4 mph 22 mph 88% 0 in
17:59 73.9 °F 70.2 °F 30.1 in NNE 11.1 mph 17 mph 88% 0 in
18:04 73.8 °F 70.2 °F 30.1 in NE 10.2 mph 18.5 mph 88.2% 0.01 in
18:09 73.6 °F 70.2 °F 30.1 in NE 10.6 mph 22.3 mph 89% 0.01 in
18:14 73.2 °F 70 °F 30.1 in NE 12.3 mph 23 mph 89.7% 0.01 in
18:19 73.2 °F 70 °F 30.1 in NE 12.6 mph 23 mph 89.8% 0.01 in
18:24 73.2 °F 70 °F 30.1 in NE 13.7 mph 21 mph 89.4% 0.03 in
18:29 73.2 °F 69.8 °F 30.1 in NE 13.7 mph 25.6 mph 89% 0.03 in
18:34 73.4 °F 69.6 °F 30.1 in NE 13.5 mph 26 mph 88.2% 0.03 in
18:39 73.6 °F 69.3 °F 30.1 in NE 13.7 mph 24.2 mph 86.6% 0.03 in
18:44 73.6 °F 68.7 °F 30.1 in NE 14.5 mph 25.3 mph 84.9% 0.03 in
18:49 73.6 °F 68.2 °F 30.1 in NE 14.5 mph 25.6 mph 83.1% 0.03 in
18:54 73.6 °F 68 °F 30.1 in NE 14.7 mph 26 mph 82.8% 0.03 in
18:59 73.6 °F 67.6 °F 30.1 in NE 14.7 mph 25.6 mph 82% 0.03 in
19:04 73.6 °F 67.6 °F 30.1 in NE 14.5 mph 26.5 mph 81.5% 0.03 in
19:09 73.6 °F 67.5 °F 30.1 in NE 14.7 mph 26.5 mph 81% 0.02 in
19:14 73.4 °F 66.9 °F 30.1 in NE 15.6 mph 26 mph 80.4% 0.02 in
19:19 73.2 °F 66.4 °F 30.1 in NE 15 mph 25.3 mph 79.4% 0.02 in
19:24 73 °F 66.2 °F 30.1 in NE 12.5 mph 25 mph 79% 0 in
19:29 73 °F 65.8 °F 30.1 in NE 12.6 mph 30.1 mph 78.2% 0 in
19:34 72.9 °F 65.1 °F 30.1 in NE 13 mph 30 mph 77% 0 in
19:39 72.7 °F 65.3 °F 30.1 in NE 13.5 mph 27 mph 77.8% 0 in
19:44 72.5 °F 65.3 °F 30.1 in NE 15.9 mph 25.6 mph 78.4% 0 in
19:49 72.3 °F 65.5 °F 30.1 in NE 15.8 mph 27.6 mph 79.1% 0 in
19:54 72.1 °F 65.7 °F 30.1 in NE 15.6 mph 28 mph 80% 0 in
19:59 72 °F 65.8 °F 30.1 in NE 15.3 mph 26 mph 80.9% 0 in
20:04 71.8 °F 65.8 °F 30.1 in NE 14 mph 23.5 mph 81.5% 0 in
20:09 71.6 °F 65.8 °F 30.1 in NE 13.8 mph 23 mph 82% 0 in
20:14 71.4 °F 65.3 °F 30.1 in NE 13 mph 22.3 mph 81.1% 0 in
20:19 71.2 °F 65.1 °F 30.1 in NE 12.8 mph 22 mph 81% 0 in
20:24 71.2 °F 64.9 °F 30.1 in NE 11.8 mph 16 mph 81% 0 in
20:29 71.1 °F 64.6 °F 30.1 in NE 11.4 mph 19.7 mph 80.3% 0 in
20:34 70.9 °F 64.2 °F 30.1 in NE 9.2 mph 20 mph 79.4% 0 in
20:39 70.9 °F 64.2 °F 30.1 in NE 9.3 mph 18 mph 79.5% 0 in
20:44 70.7 °F 63.9 °F 30.1 in NE 10.2 mph 16.1 mph 79% 0 in
20:49 70.5 °F 63.5 °F 30.1 in NE 10 mph 15 mph 78.3% 0 in
20:54 70.5 °F 63.3 °F 30.1 in NE 9.2 mph 15 mph 78% 0 in
20:59 70.3 °F 63.1 °F 30.1 in NE 8.8 mph 12 mph 78% 0 in
21:04 70.3 °F 63 °F 30.1 in NE 7.4 mph 12 mph 77.6% 0 in
21:09 70.2 °F 62.4 °F 30.1 in NE 7.2 mph 12.7 mph 76.8% 0 in
21:14 70.2 °F 62.2 °F 30.1 in NE 6.4 mph 13 mph 76% 0 in
21:19 70.2 °F 62.2 °F 30.1 in NNE 6.4 mph 13 mph 76% 0 in
21:24 70 °F 62.2 °F 30.1 in North 6.2 mph 8 mph 76.5% 0 in
21:29 70 °F 62.4 °F 30.1 in North 5.8 mph 7 mph 77.3% 0 in
21:34 69.6 °F 62.6 °F 30.1 in North 4 mph 6.9 mph 78% 0 in
21:39 69.4 °F 62.8 °F 30.1 in NNE 3.9 mph 7 mph 79% 0 in
21:44 69.4 °F 62.6 °F 30.1 in NNE 3.6 mph 8.1 mph 79% 0 in
21:49 69.4 °F 62.6 °F 30.2 in NE 3.7 mph 8.1 mph 78.9% 0 in
21:54 69.4 °F 62.4 °F 30.2 in North 4.3 mph 8 mph 78.6% 0 in
21:59 69.4 °F 62.6 °F 30.2 in NO 3.9 mph 6 mph 79% 0 in
22:04 69.4 °F 62.6 °F 30.2 in ONO 2.4 mph 5.2 mph 79% 0 in
22:09 69.4 °F 63 °F 30.2 in ONO 2.5 mph 5 mph 79.9% 0 in
22:14 69.3 °F 62.8 °F 30.2 in Oeste 3.1 mph 5.9 mph 80% 0 in
22:19 69.3 °F 62.8 °F 30.2 in Oeste 3.3 mph 6 mph 80.1% 0 in
22:24 69.1 °F 62.6 °F 30.2 in ONO 4 mph 6 mph 80% 0 in
22:29 69.3 °F 63 °F 30.2 in ONO 3.9 mph 6 mph 80.3% 0 in
22:34 69.3 °F 63.1 °F 30.2 in ONO 3.1 mph 5.2 mph 81% 0 in
22:39 69.3 °F 63.1 °F 30.2 in ONO 3.2 mph 5.9 mph 81% 0 in
22:44 69.3 °F 63.1 °F 30.2 in ONO 3.6 mph 6 mph 81% 0 in
22:49 69.3 °F 63.1 °F 30.2 in Oeste 3.6 mph 6 mph 81% 0 in
22:54 69.3 °F 63.5 °F 30.2 in OSO 3.6 mph 6 mph 81.9% 0 in
22:59 69.3 °F 63.5 °F 30.2 in OSO 3.5 mph 6.2 mph 81.8% 0 in
23:04 69.3 °F 63.3 °F 30.2 in NO 3.1 mph 6 mph 81.3% 0 in
23:09 69.3 °F 63.5 °F 30.2 in NNE 3.1 mph 5.2 mph 82% 0 in
23:14 69.3 °F 63.5 °F 30.2 in NNE 3.1 mph 5 mph 82% 0 in
23:19 69.1 °F 63.5 °F 30.2 in North 2.9 mph 4.3 mph 82% 0 in
23:24 69.1 °F 63.5 °F 30.1 in Oeste 1.8 mph 5 mph 82.4% 0 in
23:29 69.1 °F 63.7 °F 30.1 in OSO 2.1 mph 5.8 mph 83% 0 in
23:34 69.1 °F 63.7 °F 30.1 in SO 3.1 mph 6 mph 83% 0 in
23:39 68.9 °F 63.5 °F 30.1 in SO 3 mph 5.8 mph 83% 0 in
23:44 69.1 °F 63.7 °F 30.1 in OSO 2.9 mph 6 mph 83% 0 in
23:49 69.1 °F 63.7 °F 30.1 in OSO 2.8 mph 5 mph 83% 0 in
23:54 69.1 °F 63.7 °F 30.1 in OSO 2.4 mph 5 mph 83% 0 in
23:59 69.3 °F 63.9 °F 30.1 in SO 1.9 mph 4.6 mph 83% 0 in
Murcia-Puente Tocinos, España
Compliments of Weather Underground - 2.75 mb

La estación de MeteoMurcia.com, publica sus datos en los siguientes proyectos:

Weather Underground PWS IMURCIAP2 Meteoclimatic www.awekas.at

W3Counter
Web Analytics